Terminal Aerodrome Forecast
Issued by NWS

Home | Current Version | Previous Version | Text Only | Print | Product List | Glossary On
Versions: 1 2 3 4 5 6 7 8 9 10 11 12 13 14 15 16
000
FTUS41 KCAR 291736
TAFPQI
TAF
KPQI 291736Z 2918/3018 30006KT P6SM SKC
     FM292200 24007KT P6SM SCT250
     FM300600 16006KT P6SM BKN250
     FM301400 17011KT 6SM -SHRA OVC040
      AMD LTD TO CLD VIS AND WIND=

USA.gov is the U.S. government's official web portal to all federal, state and local government web resources and services.